Portada
METAR-TAF:

METAR-TAF

Aeropuertos :

Isla de Margarita, Venezuela

Aeropuerto Internacional del Caribe Santiago Mariño

latitud: 10-55N, longitud: 063-59W, altitud: 23 m

METAR: falta

Hora: 05:29 (09:29 UTC)

Pronóstico

El informe se hizo hace 5 horas y 29 minutos, a las 04:00 UTC
Pronóstico válido del 20 a las 06 UTC al 21 a las 06 UTC
Viento 12 kt del este
Visibilidad 10 km o más
Escasas nubes a una altura de 1600 ft
Evolucionando progresivamente
del 20 a las 06 UTC al 20 a las 10 UTC
Viento 8 kt del noreste

TAF: SVMG 200400Z 2006/2106 08012KT 9999 FEW016 TX33/19Z TN24/09Z BECMG 2006/2010 05008KT

Observaciones y pronósticos meteorológicos de más de 4000 aeropuertos (mensajes METAR y TAF).

Los puntos amarillos y rojos representan las estaciones disponibles.

Ponga el ratón en el punto deseado para ver el nombre de la estación.

Haga clic para ver las observaciones y los pronósticos meteorológicos.

Para cambiar el mapa : haga clic en los botones verdes con una cruz de color negro para hacer un zoom, en el botón verde con un guión para alejar o en las flechas verdes para mapas adyacentes.


METAR-TAF: